Walther Herwig III — DBFR — position and weather

sailwx.info

Track history (hours):
 
Tides and Currents Weather Stations Pressure Air Temp Water Temp Dewpoint Dewpoint Depression Visibility Wind Speed Wind Dir Waves Ship Positions

Oceanographic research ship Walther Herwig III (Germany)

Detailed information on ship capabilities available from University of Delaware's Ocean Information Center.

Last reported at 2020-Sep-24 03:00 UTC. Time now 2020-Sep-24 07:50 UTC.
Position N 53°46' E 007°07'.

Length 63.2 m; beam 14.8 m; draft 5.5 m.

Type: Fishing. MMSI: 211215500.

Date/timePositionNaut miles runAvg speedWind from/ knotsBaromVisibWave heightAir tempDewpointWater temp
2020-Sep-24 03:00N 53°46' E 007°07'611.8
2020-Sep-24 02:30N 53°45' E 006°58'5511.0
2020-Sep-23 21:30N 53°44' E 005°24'28612.7
2020-Sep-22 23:00N 56°05' W 001°48'62 1.6
2020-Sep-21 07:10N 57°05' W 001°18'1810.5
2020-Sep-21 05:30N 57°05' W 001°51'35 8.3
2020-Sep-21 01:16N 57°14' W 000°49'19 3.0
2020-Sep-20 19:01N 57°25' W 001°18'013.3
2020-Sep-20 18:59N 57°25' W 001°18'8 7.9
2020-Sep-20 18:00N 57°29' W 001°31'611.0
2020-Sep-20 17:30N 57°34' W 001°30'4 8.4
2020-Sep-20 17:00N 57°35' W 001°23'612.8
2020-Sep-20 16:30N 57°36' W 001°11'12 3.0
2020-Sep-20 12:23N 57°45' W 001°27'3 7.9
2020-Sep-20 12:00N 57°45' W 001°33'32 1.3
2020-Sep-19 11:00N 58°15' W 001°10'29 7.8
2020-Sep-19 07:19N 58°25' W 002°01'510.7
2020-Sep-19 06:54N 58°25' W 002°10'  
2020-Sep-16 16:11N 59°15' W 003°32'20 4.9
2020-Sep-16 12:00N 58°55' W 003°37'18 3.5
2020-Sep-16 06:55N 58°43' W 003°10'13 6.6
2020-Sep-16 04:58N 58°35' W 002°51'48011.9
2020-Sep-14 12:30N 53°38' E 008°26'9 3.5
2020-Sep-14 09:59N 53°32' E 008°35'0 0.0
2020-Sep-14 06:26N 53°32' E 008°35'0 0.0
2020-Sep-14 05:29N 53°31' E 008°35'0 0.0
2020-Sep-14 04:59N 53°31' E 008°35'0 0.0
2020-Sep-14 03:59N 53°31' E 008°35'0 0.0
2020-Sep-14 03:29N 53°31' E 008°35'  
Track history (hours):
 
Tides and Currents Weather Stations Pressure Air Temp Water Temp Dewpoint Dewpoint Depression Visibility Wind Speed Wind Dir Waves Ship Positions

Oceanographic research ship Walther Herwig III (Germany)

Detailed information on ship capabilities available from University of Delaware's Ocean Information Center.

Last reported at 2020-Sep-24 03:00 UTC. Time now 2020-Sep-24 07:50 UTC.
Position N 53°46' E 007°07'.

Length 63.2 m; beam 14.8 m; draft 5.5 m.

Type: Fishing. MMSI: 211215500.

Date/timePositionNaut miles runAvg speedWind from/ knotsBaromVisibWave heightAir tempDewpointWater temp
2020-Sep-24 03:00N 53°46' E 007°07'611.8
2020-Sep-24 02:30N 53°45' E 006°58'5511.0
2020-Sep-23 21:30N 53°44' E 005°24'28612.7
2020-Sep-22 23:00N 56°05' W 001°48'62 1.6
2020-Sep-21 07:10N 57°05' W 001°18'1810.5
2020-Sep-21 05:30N 57°05' W 001°51'35 8.3
2020-Sep-21 01:16N 57°14' W 000°49'19 3.0
2020-Sep-20 19:01N 57°25' W 001°18'013.3
2020-Sep-20 18:59N 57°25' W 001°18'8 7.9
2020-Sep-20 18:00N 57°29' W 001°31'611.0
2020-Sep-20 17:30N 57°34' W 001°30'4 8.4
2020-Sep-20 17:00N 57°35' W 001°23'612.8
2020-Sep-20 16:30N 57°36' W 001°11'12 3.0
2020-Sep-20 12:23N 57°45' W 001°27'3 7.9
2020-Sep-20 12:00N 57°45' W 001°33'32 1.3
2020-Sep-19 11:00N 58°15' W 001°10'29 7.8
2020-Sep-19 07:19N 58°25' W 002°01'510.7
2020-Sep-19 06:54N 58°25' W 002°10'  
2020-Sep-16 16:11N 59°15' W 003°32'20 4.9
2020-Sep-16 12:00N 58°55' W 003°37'18 3.5
2020-Sep-16 06:55N 58°43' W 003°10'13 6.6
2020-Sep-16 04:58N 58°35' W 002°51'48011.9
2020-Sep-14 12:30N 53°38' E 008°26'9 3.5
2020-Sep-14 09:59N 53°32' E 008°35'0 0.0
2020-Sep-14 06:26N 53°32' E 008°35'0 0.0
2020-Sep-14 05:29N 53°31' E 008°35'0 0.0
2020-Sep-14 04:59N 53°31' E 008°35'0 0.0
2020-Sep-14 03:59N 53°31' E 008°35'0 0.0
2020-Sep-14 03:29N 53°31' E 008°35'  

Dump ship's entire track history